sensor_id;sensor_type;location;lat;lon;timestamp;P1;durP1;ratioP1;P2;durP2;ratioP2
31676;SDS011;18385;51.572;6.578;2023-05-13T00:01:13;7.72;;;6.05;;
31676;SDS011;18385;51.572;6.578;2023-05-13T00:03:39;7.65;;;5.85;;
31676;SDS011;18385;51.572;6.578;2023-05-13T00:06:05;9.60;;;6.45;;
31676;SDS011;18385;51.572;6.578;2023-05-13T00:08:31;8.95;;;6.88;;
31676;SDS011;18385;51.572;6.578;2023-05-13T00:10:57;9.15;;;6.88;;
31676;SDS011;18385;51.572;6.578;2023-05-13T00:13:22;8.68;;;7.03;;
31676;SDS011;18385;51.572;6.578;2023-05-13T00:15:48;7.88;;;6.57;;
31676;SDS011;18385;51.572;6.578;2023-05-13T00:18:14;11.07;;;6.68;;
31676;SDS011;18385;51.572;6.578;2023-05-13T00:20:39;9.77;;;6.47;;
31676;SDS011;18385;51.572;6.578;2023-05-13T00:23:05;10.02;;;6.38;;
31676;SDS011;18385;51.572;6.578;2023-05-13T00:25:32;9.88;;;6.32;;
31676;SDS011;18385;51.572;6.578;2023-05-13T00:27:57;8.60;;;6.53;;
31676;SDS011;18385;51.572;6.578;2023-05-13T00:30:23;9.10;;;6.63;;
31676;SDS011;18385;51.572;6.578;2023-05-13T00:32:49;12.25;;;7.05;;
31676;SDS011;18385;51.572;6.578;2023-05-13T00:35:14;13.30;;;7.07;;
31676;SDS011;18385;51.572;6.578;2023-05-13T00:37:40;8.95;;;6.78;;
31676;SDS011;18385;51.572;6.578;2023-05-13T00:40:07;9.23;;;6.45;;
31676;SDS011;18385;51.572;6.578;2023-05-13T00:42:48;8.88;;;6.28;;
31676;SDS011;18385;51.572;6.578;2023-05-13T00:45:14;10.75;;;6.65;;
31676;SDS011;18385;51.572;6.578;2023-05-13T00:47:40;11.18;;;6.43;;
31676;SDS011;18385;51.572;6.578;2023-05-13T00:50:07;11.88;;;6.05;;
31676;SDS011;18385;51.572;6.578;2023-05-13T00:52:38;8.75;;;5.88;;
31676;SDS011;18385;51.572;6.578;2023-05-13T00:55:05;10.70;;;5.97;;
31676;SDS011;18385;51.572;6.578;2023-05-13T00:57:31;8.77;;;5.82;;
31676;SDS011;18385;51.572;6.578;2023-05-13T00:59:57;11.35;;;5.72;;
31676;SDS011;18385;51.572;6.578;2023-05-13T01:02:31;8.85;;;5.68;;
31676;SDS011;18385;51.572;6.578;2023-05-13T01:08:11;9.02;;;5.40;;
31676;SDS011;18385;51.572;6.578;2023-05-13T01:10:46;7.82;;;5.15;;
31676;SDS011;18385;51.572;6.578;2023-05-13T01:13:20;6.85;;;5.32;;
31676;SDS011;18385;51.572;6.578;2023-05-13T01:15:50;7.72;;;5.18;;
31676;SDS011;18385;51.572;6.578;2023-05-13T01:18:24;7.93;;;5.78;;
31676;SDS011;18385;51.572;6.578;2023-05-13T01:20:53;8.55;;;5.32;;
31676;SDS011;18385;51.572;6.578;2023-05-13T01:23:20;11.77;;;6.55;;
31676;SDS011;18385;51.572;6.578;2023-05-13T01:25:46;10.13;;;6.63;;
31676;SDS011;18385;51.572;6.578;2023-05-13T01:28:13;8.05;;;5.47;;
31676;SDS011;18385;51.572;6.578;2023-05-13T01:30:41;7.32;;;5.53;;
31676;SDS011;18385;51.572;6.578;2023-05-13T01:33:08;8.88;;;5.50;;
31676;SDS011;18385;51.572;6.578;2023-05-13T01:35:34;16.30;;;6.07;;
31676;SDS011;18385;51.572;6.578;2023-05-13T01:38:01;10.27;;;5.35;;
31676;SDS011;18385;51.572;6.578;2023-05-13T01:40:27;8.57;;;5.55;;
31676;SDS011;18385;51.572;6.578;2023-05-13T01:42:53;8.43;;;5.35;;
31676;SDS011;18385;51.572;6.578;2023-05-13T01:45:19;9.43;;;5.80;;
31676;SDS011;18385;51.572;6.578;2023-05-13T01:47:45;9.05;;;5.60;;
31676;SDS011;18385;51.572;6.578;2023-05-13T01:50:12;9.95;;;5.50;;
31676;SDS011;18385;51.572;6.578;2023-05-13T01:52:39;8.18;;;5.45;;
31676;SDS011;18385;51.572;6.578;2023-05-13T01:55:05;9.02;;;5.53;;
31676;SDS011;18385;51.572;6.578;2023-05-13T01:57:32;11.70;;;6.07;;
31676;SDS011;18385;51.572;6.578;2023-05-13T01:59:57;10.63;;;5.82;;
31676;SDS011;18385;51.572;6.578;2023-05-13T02:02:23;9.50;;;5.28;;
31676;SDS011;18385;51.572;6.578;2023-05-13T02:04:49;6.78;;;5.45;;
31676;SDS011;18385;51.572;6.578;2023-05-13T02:07:15;10.80;;;5.53;;
31676;SDS011;18385;51.572;6.578;2023-05-13T02:09:43;7.65;;;5.57;;
31676;SDS011;18385;51.572;6.578;2023-05-13T02:12:08;7.25;;;5.30;;
31676;SDS011;18385;51.572;6.578;2023-05-13T02:14:34;7.40;;;5.70;;
31676;SDS011;18385;51.572;6.578;2023-05-13T02:17:00;10.68;;;5.78;;
31676;SDS011;18385;51.572;6.578;2023-05-13T02:19:27;8.48;;;5.55;;
31676;SDS011;18385;51.572;6.578;2023-05-13T02:21:53;9.07;;;5.07;;
31676;SDS011;18385;51.572;6.578;2023-05-13T02:24:18;7.88;;;5.22;;
31676;SDS011;18385;51.572;6.578;2023-05-13T02:26:44;8.38;;;5.47;;
31676;SDS011;18385;51.572;6.578;2023-05-13T02:29:10;10.52;;;5.45;;
31676;SDS011;18385;51.572;6.578;2023-05-13T02:31:36;7.47;;;5.28;;
31676;SDS011;18385;51.572;6.578;2023-05-13T02:34:02;8.48;;;5.97;;
31676;SDS011;18385;51.572;6.578;2023-05-13T02:36:28;13.57;;;5.97;;
31676;SDS011;18385;51.572;6.578;2023-05-13T02:38:54;8.93;;;5.70;;
31676;SDS011;18385;51.572;6.578;2023-05-13T02:41:19;8.52;;;5.57;;
31676;SDS011;18385;51.572;6.578;2023-05-13T02:43:47;7.22;;;5.15;;
31676;SDS011;18385;51.572;6.578;2023-05-13T02:46:13;8.90;;;5.60;;
31676;SDS011;18385;51.572;6.578;2023-05-13T02:48:39;8.85;;;5.45;;
31676;SDS011;18385;51.572;6.578;2023-05-13T02:51:05;10.25;;;5.22;;
31676;SDS011;18385;51.572;6.578;2023-05-13T02:53:30;8.18;;;5.28;;
31676;SDS011;18385;51.572;6.578;2023-05-13T02:56:01;7.88;;;5.55;;
31676;SDS011;18385;51.572;6.578;2023-05-13T02:58:27;7.13;;;5.22;;
31676;SDS011;18385;51.572;6.578;2023-05-13T03:00:53;8.25;;;5.65;;
31676;SDS011;18385;51.572;6.578;2023-05-13T03:03:22;8.70;;;5.18;;
31676;SDS011;18385;51.572;6.578;2023-05-13T03:05:48;11.95;;;5.47;;
31676;SDS011;18385;51.572;6.578;2023-05-13T03:08:13;9.60;;;5.95;;
31676;SDS011;18385;51.572;6.578;2023-05-13T03:10:39;9.38;;;5.45;;
31676;SDS011;18385;51.572;6.578;2023-05-13T03:13:05;8.00;;;5.60;;
31676;SDS011;18385;51.572;6.578;2023-05-13T03:15:30;7.78;;;5.65;;
31676;SDS011;18385;51.572;6.578;2023-05-13T03:17:56;8.63;;;5.53;;
31676;SDS011;18385;51.572;6.578;2023-05-13T03:20:22;7.97;;;5.53;;
31676;SDS011;18385;51.572;6.578;2023-05-13T03:22:48;10.95;;;5.88;;
31676;SDS011;18385;51.572;6.578;2023-05-13T03:25:14;9.60;;;5.47;;
31676;SDS011;18385;51.572;6.578;2023-05-13T03:27:45;9.50;;;5.80;;
31676;SDS011;18385;51.572;6.578;2023-05-13T03:30:11;7.55;;;5.60;;
31676;SDS011;18385;51.572;6.578;2023-05-13T03:32:55;8.27;;;5.88;;
31676;SDS011;18385;51.572;6.578;2023-05-13T03:35:22;7.80;;;5.72;;
31676;SDS011;18385;51.572;6.578;2023-05-13T03:37:48;8.55;;;5.63;;
31676;SDS011;18385;51.572;6.578;2023-05-13T03:40:15;9.18;;;5.80;;
31676;SDS011;18385;51.572;6.578;2023-05-13T03:42:40;9.52;;;5.65;;
31676;SDS011;18385;51.572;6.578;2023-05-13T03:45:07;10.80;;;6.55;;
31676;SDS011;18385;51.572;6.578;2023-05-13T03:47:35;11.27;;;6.25;;
31676;SDS011;18385;51.572;6.578;2023-05-13T03:50:05;9.05;;;6.50;;
31676;SDS011;18385;51.572;6.578;2023-05-13T03:52:38;9.75;;;6.25;;
31676;SDS011;18385;51.572;6.578;2023-05-13T03:55:04;9.68;;;5.95;;
31676;SDS011;18385;51.572;6.578;2023-05-13T03:57:32;11.48;;;6.03;;
31676;SDS011;18385;51.572;6.578;2023-05-13T03:59:58;9.65;;;6.40;;
31676;SDS011;18385;51.572;6.578;2023-05-13T04:02:23;10.18;;;6.68;;
31676;SDS011;18385;51.572;6.578;2023-05-13T04:04:49;28.10;;;18.35;;
31676;SDS011;18385;51.572;6.578;2023-05-13T04:07:15;8.82;;;5.93;;
31676;SDS011;18385;51.572;6.578;2023-05-13T04:09:40;10.98;;;6.28;;
31676;SDS011;18385;51.572;6.578;2023-05-13T04:12:06;10.75;;;6.30;;
31676;SDS011;18385;51.572;6.578;2023-05-13T04:14:32;11.25;;;6.10;;
31676;SDS011;18385;51.572;6.578;2023-05-13T04:16:58;12.82;;;6.32;;
31676;SDS011;18385;51.572;6.578;2023-05-13T04:19:24;9.65;;;6.32;;
31676;SDS011;18385;51.572;6.578;2023-05-13T04:21:50;11.90;;;6.45;;
31676;SDS011;18385;51.572;6.578;2023-05-13T04:24:15;8.93;;;6.18;;
31676;SDS011;18385;51.572;6.578;2023-05-13T04:26:41;11.73;;;6.00;;
31676;SDS011;18385;51.572;6.578;2023-05-13T04:29:07;10.68;;;6.40;;
31676;SDS011;18385;51.572;6.578;2023-05-13T04:31:32;10.75;;;6.50;;
31676;SDS011;18385;51.572;6.578;2023-05-13T04:33:58;8.43;;;6.18;;
31676;SDS011;18385;51.572;6.578;2023-05-13T04:36:24;12.13;;;6.85;;
31676;SDS011;18385;51.572;6.578;2023-05-13T04:38:51;12.45;;;6.47;;
31676;SDS011;18385;51.572;6.578;2023-05-13T04:41:17;9.48;;;6.47;;
31676;SDS011;18385;51.572;6.578;2023-05-13T04:43:44;11.23;;;6.30;;
31676;SDS011;18385;51.572;6.578;2023-05-13T04:46:10;9.05;;;6.10;;
31676;SDS011;18385;51.572;6.578;2023-05-13T04:48:36;11.57;;;6.93;;
31676;SDS011;18385;51.572;6.578;2023-05-13T04:51:02;10.65;;;6.65;;
31676;SDS011;18385;51.572;6.578;2023-05-13T04:53:29;7.90;;;6.30;;
31676;SDS011;18385;51.572;6.578;2023-05-13T04:55:58;12.60;;;6.72;;
31676;SDS011;18385;51.572;6.578;2023-05-13T04:58:28;14.30;;;6.60;;
31676;SDS011;18385;51.572;6.578;2023-05-13T05:00:53;11.02;;;7.20;;
31676;SDS011;18385;51.572;6.578;2023-05-13T05:03:19;9.50;;;6.85;;
31676;SDS011;18385;51.572;6.578;2023-05-13T05:05:46;10.45;;;6.63;;
31676;SDS011;18385;51.572;6.578;2023-05-13T05:08:13;10.98;;;6.97;;
31676;SDS011;18385;51.572;6.578;2023-05-13T05:10:39;10.02;;;7.00;;
31676;SDS011;18385;51.572;6.578;2023-05-13T05:13:07;11.80;;;6.72;;
31676;SDS011;18385;51.572;6.578;2023-05-13T05:15:35;10.40;;;7.18;;
31676;SDS011;18385;51.572;6.578;2023-05-13T05:18:03;10.70;;;6.82;;
31676;SDS011;18385;51.572;6.578;2023-05-13T05:20:31;11.95;;;6.85;;
31676;SDS011;18385;51.572;6.578;2023-05-13T05:22:58;9.65;;;7.20;;
31676;SDS011;18385;51.572;6.578;2023-05-13T05:25:26;13.75;;;7.45;;
31676;SDS011;18385;51.572;6.578;2023-05-13T05:27:52;13.70;;;7.55;;
31676;SDS011;18385;51.572;6.578;2023-05-13T05:30:18;11.82;;;7.20;;
31676;SDS011;18385;51.572;6.578;2023-05-13T05:32:47;10.80;;;7.70;;
31676;SDS011;18385;51.572;6.578;2023-05-13T05:35:13;13.32;;;8.00;;
31676;SDS011;18385;51.572;6.578;2023-05-13T05:37:41;14.43;;;8.07;;
31676;SDS011;18385;51.572;6.578;2023-05-13T05:40:07;11.10;;;7.32;;
31676;SDS011;18385;51.572;6.578;2023-05-13T05:42:37;13.13;;;8.18;;
31676;SDS011;18385;51.572;6.578;2023-05-13T05:45:03;12.85;;;8.00;;
31676;SDS011;18385;51.572;6.578;2023-05-13T05:47:28;10.20;;;7.47;;
31676;SDS011;18385;51.572;6.578;2023-05-13T05:49:54;14.15;;;8.05;;
31676;SDS011;18385;51.572;6.578;2023-05-13T05:52:20;9.77;;;7.40;;
31676;SDS011;18385;51.572;6.578;2023-05-13T05:54:46;10.93;;;8.10;;
31676;SDS011;18385;51.572;6.578;2023-05-13T05:57:12;9.13;;;7.95;;
31676;SDS011;18385;51.572;6.578;2023-05-13T05:59:38;13.50;;;7.97;;
31676;SDS011;18385;51.572;6.578;2023-05-13T06:02:04;9.85;;;7.47;;
31676;SDS011;18385;51.572;6.578;2023-05-13T06:04:30;12.95;;;7.55;;
31676;SDS011;18385;51.572;6.578;2023-05-13T06:06:58;11.13;;;7.25;;
31676;SDS011;18385;51.572;6.578;2023-05-13T06:09:24;8.90;;;6.55;;
31676;SDS011;18385;51.572;6.578;2023-05-13T06:11:52;13.60;;;8.07;;
31676;SDS011;18385;51.572;6.578;2023-05-13T06:14:17;12.10;;;8.23;;
31676;SDS011;18385;51.572;6.578;2023-05-13T06:16:43;11.05;;;7.93;;
31676;SDS011;18385;51.572;6.578;2023-05-13T06:19:09;11.43;;;8.35;;
31676;SDS011;18385;51.572;6.578;2023-05-13T06:21:35;12.80;;;8.93;;
31676;SDS011;18385;51.572;6.578;2023-05-13T06:24:01;10.63;;;7.55;;
31676;SDS011;18385;51.572;6.578;2023-05-13T06:26:27;10.40;;;8.50;;
31676;SDS011;18385;51.572;6.578;2023-05-13T06:28:53;11.48;;;7.85;;
31676;SDS011;18385;51.572;6.578;2023-05-13T06:31:22;10.07;;;7.57;;
31676;SDS011;18385;51.572;6.578;2023-05-13T06:33:47;12.02;;;8.38;;
31676;SDS011;18385;51.572;6.578;2023-05-13T06:36:13;10.63;;;7.40;;
31676;SDS011;18385;51.572;6.578;2023-05-13T06:38:39;10.13;;;7.00;;
31676;SDS011;18385;51.572;6.578;2023-05-13T06:41:05;11.13;;;7.53;;
31676;SDS011;18385;51.572;6.578;2023-05-13T06:43:33;10.27;;;8.23;;
31676;SDS011;18385;51.572;6.578;2023-05-13T06:46:10;11.40;;;7.75;;
31676;SDS011;18385;51.572;6.578;2023-05-13T06:48:37;10.45;;;7.68;;
31676;SDS011;18385;51.572;6.578;2023-05-13T06:51:03;11.80;;;7.95;;
31676;SDS011;18385;51.572;6.578;2023-05-13T06:53:29;10.30;;;8.10;;
31676;SDS011;18385;51.572;6.578;2023-05-13T06:55:56;14.00;;;7.97;;
31676;SDS011;18385;51.572;6.578;2023-05-13T06:58:21;9.70;;;8.00;;
31676;SDS011;18385;51.572;6.578;2023-05-13T07:00:47;12.38;;;7.70;;
31676;SDS011;18385;51.572;6.578;2023-05-13T07:03:16;9.70;;;7.80;;
31676;SDS011;18385;51.572;6.578;2023-05-13T07:05:41;11.45;;;7.97;;
31676;SDS011;18385;51.572;6.578;2023-05-13T07:08:07;10.20;;;8.02;;
31676;SDS011;18385;51.572;6.578;2023-05-13T07:10:34;15.77;;;9.23;;
31676;SDS011;18385;51.572;6.578;2023-05-13T07:13:00;12.18;;;7.85;;
31676;SDS011;18385;51.572;6.578;2023-05-13T07:15:26;10.68;;;7.88;;
31676;SDS011;18385;51.572;6.578;2023-05-13T07:17:52;11.63;;;7.43;;
31676;SDS011;18385;51.572;6.578;2023-05-13T07:20:18;10.52;;;7.78;;
31676;SDS011;18385;51.572;6.578;2023-05-13T07:22:47;11.82;;;6.75;;
31676;SDS011;18385;51.572;6.578;2023-05-13T07:25:13;12.38;;;7.13;;
31676;SDS011;18385;51.572;6.578;2023-05-13T07:27:39;8.90;;;6.97;;
31676;SDS011;18385;51.572;6.578;2023-05-13T07:30:05;10.60;;;7.82;;
31676;SDS011;18385;51.572;6.578;2023-05-13T07:32:31;10.68;;;7.20;;
31676;SDS011;18385;51.572;6.578;2023-05-13T07:34:57;11.63;;;7.05;;
31676;SDS011;18385;51.572;6.578;2023-05-13T07:37:22;14.35;;;7.22;;
31676;SDS011;18385;51.572;6.578;2023-05-13T07:39:48;11.35;;;7.20;;
31676;SDS011;18385;51.572;6.578;2023-05-13T07:42:14;8.68;;;6.70;;
31676;SDS011;18385;51.572;6.578;2023-05-13T07:44:40;11.52;;;7.13;;
31676;SDS011;18385;51.572;6.578;2023-05-13T07:47:05;10.95;;;6.60;;
31676;SDS011;18385;51.572;6.578;2023-05-13T07:49:31;10.13;;;6.40;;
31676;SDS011;18385;51.572;6.578;2023-05-13T07:51:56;8.38;;;6.40;;
31676;SDS011;18385;51.572;6.578;2023-05-13T07:54:22;8.65;;;5.75;;
31676;SDS011;18385;51.572;6.578;2023-05-13T07:56:48;10.10;;;7.10;;
31676;SDS011;18385;51.572;6.578;2023-05-13T07:59:13;10.73;;;7.05;;
31676;SDS011;18385;51.572;6.578;2023-05-13T08:01:39;9.57;;;6.18;;
31676;SDS011;18385;51.572;6.578;2023-05-13T08:04:06;12.73;;;6.25;;
31676;SDS011;18385;51.572;6.578;2023-05-13T08:06:31;11.30;;;6.60;;
31676;SDS011;18385;51.572;6.578;2023-05-13T08:08:57;9.20;;;6.28;;
31676;SDS011;18385;51.572;6.578;2023-05-13T08:11:22;9.77;;;6.63;;
31676;SDS011;18385;51.572;6.578;2023-05-13T08:13:49;9.27;;;6.93;;
31676;SDS011;18385;51.572;6.578;2023-05-13T08:16:15;10.27;;;6.82;;
31676;SDS011;18385;51.572;6.578;2023-05-13T08:18:40;10.40;;;7.43;;
31676;SDS011;18385;51.572;6.578;2023-05-13T08:21:06;9.00;;;6.88;;
31676;SDS011;18385;51.572;6.578;2023-05-13T08:23:32;9.65;;;6.28;;
31676;SDS011;18385;51.572;6.578;2023-05-13T08:25:58;8.70;;;6.13;;
31676;SDS011;18385;51.572;6.578;2023-05-13T08:28:24;10.43;;;6.35;;
31676;SDS011;18385;51.572;6.578;2023-05-13T08:30:51;9.75;;;6.40;;
31676;SDS011;18385;51.572;6.578;2023-05-13T08:33:17;8.68;;;5.88;;
31676;SDS011;18385;51.572;6.578;2023-05-13T08:35:42;9.40;;;5.82;;
31676;SDS011;18385;51.572;6.578;2023-05-13T08:38:08;8.38;;;5.82;;
31676;SDS011;18385;51.572;6.578;2023-05-13T08:40:33;6.97;;;5.18;;
31676;SDS011;18385;51.572;6.578;2023-05-13T08:42:59;9.68;;;6.45;;
31676;SDS011;18385;51.572;6.578;2023-05-13T08:45:30;12.57;;;5.80;;
31676;SDS011;18385;51.572;6.578;2023-05-13T08:47:59;7.72;;;5.35;;
31676;SDS011;18385;51.572;6.578;2023-05-13T08:50:26;11.02;;;6.53;;
31676;SDS011;18385;51.572;6.578;2023-05-13T08:52:53;11.32;;;5.60;;
31676;SDS011;18385;51.572;6.578;2023-05-13T08:55:19;8.43;;;6.18;;
31676;SDS011;18385;51.572;6.578;2023-05-13T08:57:46;12.20;;;6.10;;
31676;SDS011;18385;51.572;6.578;2023-05-13T09:00:12;8.63;;;5.43;;
31676;SDS011;18385;51.572;6.578;2023-05-13T09:02:38;6.63;;;5.38;;
31676;SDS011;18385;51.572;6.578;2023-05-13T09:05:06;8.77;;;5.20;;
31676;SDS011;18385;51.572;6.578;2023-05-13T09:07:34;11.05;;;5.68;;
31676;SDS011;18385;51.572;6.578;2023-05-13T09:10:01;7.63;;;5.90;;
31676;SDS011;18385;51.572;6.578;2023-05-13T09:12:44;10.55;;;5.53;;
31676;SDS011;18385;51.572;6.578;2023-05-13T09:15:18;9.00;;;5.50;;
31676;SDS011;18385;51.572;6.578;2023-05-13T09:17:50;7.03;;;5.30;;
31676;SDS011;18385;51.572;6.578;2023-05-13T09:20:18;7.03;;;4.53;;
31676;SDS011;18385;51.572;6.578;2023-05-13T09:22:52;8.95;;;4.72;;
31676;SDS011;18385;51.572;6.578;2023-05-13T09:25:20;8.75;;;4.97;;
31676;SDS011;18385;51.572;6.578;2023-05-13T09:27:52;7.40;;;5.20;;
31676;SDS011;18385;51.572;6.578;2023-05-13T09:30:22;7.53;;;5.00;;
31676;SDS011;18385;51.572;6.578;2023-05-13T09:35:34;5.15;;;4.30;;
31676;SDS011;18385;51.572;6.578;2023-05-13T09:38:00;5.45;;;3.85;;
31676;SDS011;18385;51.572;6.578;2023-05-13T09:40:35;5.60;;;4.15;;
31676;SDS011;18385;51.572;6.578;2023-05-13T09:43:02;6.25;;;4.53;;
31676;SDS011;18385;51.572;6.578;2023-05-13T09:45:30;5.53;;;4.13;;
31676;SDS011;18385;51.572;6.578;2023-05-13T09:47:56;5.13;;;3.50;;
31676;SDS011;18385;51.572;6.578;2023-05-13T09:50:22;7.97;;;3.42;;
31676;SDS011;18385;51.572;6.578;2023-05-13T09:52:48;4.70;;;2.83;;
31676;SDS011;18385;51.572;6.578;2023-05-13T09:55:13;5.82;;;2.90;;
31676;SDS011;18385;51.572;6.578;2023-05-13T09:57:40;6.30;;;3.22;;
31676;SDS011;18385;51.572;6.578;2023-05-13T10:00:06;7.78;;;3.75;;
31676;SDS011;18385;51.572;6.578;2023-05-13T10:02:36;6.72;;;2.90;;
31676;SDS011;18385;51.572;6.578;2023-05-13T10:05:02;5.05;;;3.33;;
31676;SDS011;18385;51.572;6.578;2023-05-13T10:07:32;4.45;;;2.78;;
31676;SDS011;18385;51.572;6.578;2023-05-13T10:09:59;5.15;;;2.53;;
31676;SDS011;18385;51.572;6.578;2023-05-13T10:12:27;6.03;;;2.50;;
31676;SDS011;18385;51.572;6.578;2023-05-13T10:14:54;4.07;;;2.03;;
31676;SDS011;18385;51.572;6.578;2023-05-13T10:17:21;4.72;;;2.67;;
31676;SDS011;18385;51.572;6.578;2023-05-13T10:19:48;8.30;;;3.13;;
31676;SDS011;18385;51.572;6.578;2023-05-13T10:22:17;5.50;;;2.58;;
31676;SDS011;18385;51.572;6.578;2023-05-13T10:24:52;2.50;;;1.88;;
31676;SDS011;18385;51.572;6.578;2023-05-13T10:27:27;9.38;;;2.60;;
31676;SDS011;18385;51.572;6.578;2023-05-13T10:29:57;5.13;;;2.15;;
31676;SDS011;18385;51.572;6.578;2023-05-13T10:32:25;6.15;;;2.90;;
31676;SDS011;18385;51.572;6.578;2023-05-13T10:34:58;5.53;;;2.88;;
31676;SDS011;18385;51.572;6.578;2023-05-13T10:37:54;3.38;;;2.47;;
31676;SDS011;18385;51.572;6.578;2023-05-13T10:40:54;7.55;;;2.63;;
31676;SDS011;18385;51.572;6.578;2023-05-13T10:45:57;3.33;;;2.60;;
31676;SDS011;18385;51.572;6.578;2023-05-13T10:48:25;8.95;;;2.78;;
31676;SDS011;18385;51.572;6.578;2023-05-13T10:51:02;5.40;;;2.25;;
31676;SDS011;18385;51.572;6.578;2023-05-13T10:53:35;7.03;;;2.42;;
31676;SDS011;18385;51.572;6.578;2023-05-13T10:56:08;5.88;;;2.70;;
31676;SDS011;18385;51.572;6.578;2023-05-13T10:58:34;6.13;;;2.88;;
31676;SDS011;18385;51.572;6.578;2023-05-13T11:03:38;3.53;;;2.33;;
31676;SDS011;18385;51.572;6.578;2023-05-13T11:06:18;6.00;;;2.58;;
31676;SDS011;18385;51.572;6.578;2023-05-13T11:08:49;3.85;;;2.15;;
31676;SDS011;18385;51.572;6.578;2023-05-13T11:16:20;7.43;;;2.10;;
31676;SDS011;18385;51.572;6.578;2023-05-13T11:18:47;6.28;;;2.97;;
31676;SDS011;18385;51.572;6.578;2023-05-13T11:21:15;4.40;;;2.17;;
31676;SDS011;18385;51.572;6.578;2023-05-13T11:24:03;7.72;;;2.75;;
31676;SDS011;18385;51.572;6.578;2023-05-13T11:29:33;5.70;;;1.98;;
31676;SDS011;18385;51.572;6.578;2023-05-13T11:32:01;6.03;;;1.98;;
31676;SDS011;18385;51.572;6.578;2023-05-13T11:34:28;2.72;;;2.15;;
31676;SDS011;18385;51.572;6.578;2023-05-13T11:36:56;3.33;;;1.92;;
31676;SDS011;18385;51.572;6.578;2023-05-13T11:39:31;5.78;;;2.15;;
31676;SDS011;18385;51.572;6.578;2023-05-13T11:41:57;4.93;;;1.92;;
31676;SDS011;18385;51.572;6.578;2023-05-13T11:44:25;4.53;;;2.60;;
31676;SDS011;18385;51.572;6.578;2023-05-13T11:46:53;6.63;;;1.80;;
31676;SDS011;18385;51.572;6.578;2023-05-13T11:49:39;6.25;;;2.88;;
31676;SDS011;18385;51.572;6.578;2023-05-13T11:52:07;5.18;;;1.95;;
31676;SDS011;18385;51.572;6.578;2023-05-13T11:57:17;4.13;;;2.08;;
31676;SDS011;18385;51.572;6.578;2023-05-13T12:02:26;5.80;;;2.00;;
31676;SDS011;18385;51.572;6.578;2023-05-13T12:05:00;7.32;;;2.28;;
31676;SDS011;18385;51.572;6.578;2023-05-13T12:07:28;4.95;;;1.90;;
31676;SDS011;18385;51.572;6.578;2023-05-13T12:09:55;4.80;;;2.35;;
31676;SDS011;18385;51.572;6.578;2023-05-13T12:12:22;4.03;;;2.17;;
31676;SDS011;18385;51.572;6.578;2023-05-13T12:14:48;3.22;;;2.33;;
31676;SDS011;18385;51.572;6.578;2023-05-13T12:17:18;4.70;;;2.13;;
31676;SDS011;18385;51.572;6.578;2023-05-13T12:20:04;6.05;;;2.25;;
31676;SDS011;18385;51.572;6.578;2023-05-13T12:22:30;4.10;;;2.00;;
31676;SDS011;18385;51.572;6.578;2023-05-13T12:24:56;2.45;;;1.98;;
31676;SDS011;18385;51.572;6.578;2023-05-13T12:27:27;6.45;;;1.95;;
31676;SDS011;18385;51.572;6.578;2023-05-13T12:29:53;5.50;;;1.95;;
31676;SDS011;18385;51.572;6.578;2023-05-13T12:32:19;5.00;;;1.98;;
31676;SDS011;18385;51.572;6.578;2023-05-13T12:34:48;3.63;;;2.10;;
31676;SDS011;18385;51.572;6.578;2023-05-13T12:37:15;7.05;;;2.28;;
31676;SDS011;18385;51.572;6.578;2023-05-13T12:39:41;8.18;;;1.95;;
31676;SDS011;18385;51.572;6.578;2023-05-13T12:42:17;5.47;;;2.20;;
31676;SDS011;18385;51.572;6.578;2023-05-13T12:44:43;5.18;;;1.85;;
31676;SDS011;18385;51.572;6.578;2023-05-13T12:47:09;5.55;;;2.20;;
31676;SDS011;18385;51.572;6.578;2023-05-13T12:49:49;5.63;;;2.15;;
31676;SDS011;18385;51.572;6.578;2023-05-13T12:52:19;3.38;;;1.58;;
31676;SDS011;18385;51.572;6.578;2023-05-13T12:54:45;3.55;;;1.90;;
31676;SDS011;18385;51.572;6.578;2023-05-13T12:57:11;3.58;;;1.73;;
31676;SDS011;18385;51.572;6.578;2023-05-13T12:59:39;7.40;;;1.92;;
31676;SDS011;18385;51.572;6.578;2023-05-13T13:02:05;3.65;;;1.98;;
31676;SDS011;18385;51.572;6.578;2023-05-13T13:04:31;5.35;;;1.90;;
31676;SDS011;18385;51.572;6.578;2023-05-13T13:06:56;4.95;;;2.05;;
31676;SDS011;18385;51.572;6.578;2023-05-13T13:09:22;4.82;;;1.88;;
31676;SDS011;18385;51.572;6.578;2023-05-13T13:11:48;5.38;;;1.77;;
31676;SDS011;18385;51.572;6.578;2023-05-13T13:14:13;3.15;;;1.50;;
31676;SDS011;18385;51.572;6.578;2023-05-13T13:16:39;5.50;;;1.92;;
31676;SDS011;18385;51.572;6.578;2023-05-13T13:19:04;2.25;;;1.50;;
31676;SDS011;18385;51.572;6.578;2023-05-13T13:21:30;4.72;;;1.70;;
31676;SDS011;18385;51.572;6.578;2023-05-13T13:23:56;3.05;;;1.70;;
31676;SDS011;18385;51.572;6.578;2023-05-13T13:26:21;6.90;;;1.88;;
31676;SDS011;18385;51.572;6.578;2023-05-13T13:28:47;3.78;;;1.80;;
31676;SDS011;18385;51.572;6.578;2023-05-13T13:31:13;5.28;;;2.53;;
31676;SDS011;18385;51.572;6.578;2023-05-13T13:33:38;4.78;;;1.75;;
31676;SDS011;18385;51.572;6.578;2023-05-13T13:36:04;3.20;;;1.70;;
31676;SDS011;18385;51.572;6.578;2023-05-13T13:38:30;3.97;;;1.73;;
31676;SDS011;18385;51.572;6.578;2023-05-13T13:40:56;4.50;;;1.83;;
31676;SDS011;18385;51.572;6.578;2023-05-13T13:43:21;6.25;;;2.55;;
31676;SDS011;18385;51.572;6.578;2023-05-13T13:45:47;7.57;;;1.88;;
31676;SDS011;18385;51.572;6.578;2023-05-13T13:48:13;4.88;;;2.47;;
31676;SDS011;18385;51.572;6.578;2023-05-13T13:50:38;3.78;;;1.67;;
31676;SDS011;18385;51.572;6.578;2023-05-13T13:53:04;6.43;;;1.90;;
31676;SDS011;18385;51.572;6.578;2023-05-13T13:55:30;3.28;;;1.63;;
31676;SDS011;18385;51.572;6.578;2023-05-13T13:57:55;5.47;;;1.77;;
31676;SDS011;18385;51.572;6.578;2023-05-13T14:00:21;4.95;;;1.77;;
31676;SDS011;18385;51.572;6.578;2023-05-13T14:02:46;3.65;;;1.70;;
31676;SDS011;18385;51.572;6.578;2023-05-13T14:05:12;7.72;;;1.75;;
31676;SDS011;18385;51.572;6.578;2023-05-13T14:07:38;7.72;;;1.80;;
31676;SDS011;18385;51.572;6.578;2023-05-13T14:10:04;6.18;;;2.10;;
31676;SDS011;18385;51.572;6.578;2023-05-13T14:12:30;3.28;;;1.50;;
31676;SDS011;18385;51.572;6.578;2023-05-13T14:14:56;2.67;;;1.80;;
31676;SDS011;18385;51.572;6.578;2023-05-13T14:17:22;3.20;;;1.80;;
31676;SDS011;18385;51.572;6.578;2023-05-13T14:19:48;2.38;;;1.70;;
31676;SDS011;18385;51.572;6.578;2023-05-13T14:22:19;2.08;;;1.27;;
31676;SDS011;18385;51.572;6.578;2023-05-13T14:24:49;2.95;;;1.73;;
31676;SDS011;18385;51.572;6.578;2023-05-13T14:27:15;4.68;;;2.00;;
31676;SDS011;18385;51.572;6.578;2023-05-13T14:29:41;2.63;;;1.80;;
31676;SDS011;18385;51.572;6.578;2023-05-13T14:32:07;4.75;;;1.80;;
31676;SDS011;18385;51.572;6.578;2023-05-13T14:34:33;4.85;;;1.60;;
31676;SDS011;18385;51.572;6.578;2023-05-13T14:36:59;5.78;;;1.50;;
31676;SDS011;18385;51.572;6.578;2023-05-13T14:39:24;2.88;;;1.80;;
31676;SDS011;18385;51.572;6.578;2023-05-13T14:41:50;2.67;;;2.10;;
31676;SDS011;18385;51.572;6.578;2023-05-13T14:44:16;4.95;;;1.90;;
31676;SDS011;18385;51.572;6.578;2023-05-13T14:46:41;3.78;;;2.55;;
31676;SDS011;18385;51.572;6.578;2023-05-13T14:49:07;3.58;;;1.90;;
31676;SDS011;18385;51.572;6.578;2023-05-13T14:51:33;2.88;;;1.98;;
31676;SDS011;18385;51.572;6.578;2023-05-13T14:53:59;2.45;;;1.88;;
31676;SDS011;18385;51.572;6.578;2023-05-13T14:56:24;8.73;;;2.58;;
31676;SDS011;18385;51.572;6.578;2023-05-13T14:58:51;6.35;;;1.90;;
31676;SDS011;18385;51.572;6.578;2023-05-13T15:01:17;3.33;;;1.92;;
31676;SDS011;18385;51.572;6.578;2023-05-13T15:03:43;4.75;;;1.88;;
31676;SDS011;18385;51.572;6.578;2023-05-13T15:06:09;2.03;;;1.73;;
31676;SDS011;18385;51.572;6.578;2023-05-13T15:08:35;2.58;;;1.90;;